createdAt,value
2018-12-21T00:00:02.091Z,4.93
2018-12-21T00:02:39.764Z,5.13
2018-12-21T00:05:19.259Z,5.13
2018-12-21T00:07:58.602Z,5.37
2018-12-21T00:10:38.528Z,5.20
2018-12-21T00:13:15.595Z,5.17
2018-12-21T00:15:54.853Z,4.80
2018-12-21T00:18:32.388Z,5.20
2018-12-21T00:21:11.739Z,5.03
2018-12-21T00:23:48.479Z,4.80
2018-12-21T00:26:27.300Z,4.53
2018-12-21T00:29:03.868Z,5.10
2018-12-21T00:31:48.449Z,4.47
2018-12-21T00:34:30.733Z,4.50
2018-12-21T00:37:13.574Z,4.50
2018-12-21T00:39:56.460Z,3.73
2018-12-21T00:42:48.075Z,4.17
2018-12-21T00:45:30.421Z,4.10
2018-12-21T00:48:09.058Z,4.30
2018-12-21T00:50:46.412Z,4.60
2018-12-21T00:53:25.382Z,4.37
2018-12-21T00:56:02.518Z,4.80
2018-12-21T00:58:42.195Z,5.30
2018-12-21T01:01:19.988Z,5.27
2018-12-21T01:03:58.457Z,4.60
2018-12-21T01:06:39.078Z,5.20
2018-12-21T01:09:18.601Z,4.33
2018-12-21T01:12:01.507Z,5.90
2018-12-21T01:14:39.911Z,5.23
2018-12-21T01:17:19.539Z,4.47
2018-12-21T01:19:56.773Z,4.50
2018-12-21T01:22:36.298Z,5.13
2018-12-21T01:25:15.500Z,5.17
2018-12-21T01:27:57.274Z,5.80
2018-12-21T01:30:36.797Z,4.90
2018-12-21T01:33:16.261Z,5.77
2018-12-21T01:35:53.471Z,6.13
2018-12-21T01:38:35.468Z,6.83
2018-12-21T01:41:15.659Z,6.13
2018-12-21T01:43:57.583Z,5.60
2018-12-21T01:46:35.716Z,5.17
2018-12-21T01:49:14.450Z,6.37
2018-12-21T01:51:51.535Z,5.60
2018-12-21T01:54:30.428Z,5.50
2018-12-21T01:57:07.159Z,5.33
2018-12-21T01:59:45.154Z,4.90
2018-12-21T02:02:22.252Z,4.63
2018-12-21T02:05:01.139Z,5.40
2018-12-21T02:07:37.539Z,5.10
2018-12-21T02:10:16.679Z,4.93
2018-12-21T02:12:53.868Z,5.47
2018-12-21T02:15:35.568Z,5.17
2018-12-21T02:18:13.440Z,5.13
2018-12-21T02:20:52.729Z,5.33
2018-12-21T02:23:32.007Z,4.17
2018-12-21T02:26:11.260Z,4.53
2018-12-21T02:28:48.777Z,4.57
2018-12-21T02:31:28.083Z,3.97
2018-12-21T02:34:05.211Z,4.27
2018-12-21T02:36:44.886Z,4.60
2018-12-21T02:39:22.197Z,4.47
2018-12-21T02:42:01.476Z,4.83
2018-12-21T02:44:38.457Z,4.43
2018-12-21T02:47:17.488Z,3.90
2018-12-21T02:49:54.939Z,4.10
2018-12-21T02:52:34.222Z,4.03
2018-12-21T02:55:13.266Z,3.80
2018-12-21T02:57:51.529Z,3.93
2018-12-21T03:00:28.770Z,3.97
2018-12-21T03:03:10.639Z,4.00
2018-12-21T03:05:51.276Z,4.00
2018-12-21T03:08:28.913Z,3.53
2018-12-21T03:11:06.487Z,3.97
2018-12-21T03:13:43.657Z,3.10
2018-12-21T03:16:23.812Z,3.40
2018-12-21T03:19:06.114Z,3.63
2018-12-21T03:21:41.842Z,3.60
2018-12-21T03:24:19.975Z,3.63
2018-12-21T03:26:57.134Z,3.77
2018-12-21T03:32:57.040Z,3.20
2018-12-21T03:35:37.852Z,3.43
2018-12-21T03:38:19.054Z,3.20
2018-12-21T03:40:58.858Z,3.60
2018-12-21T03:43:38.155Z,3.57
2018-12-21T03:46:17.925Z,3.33
2018-12-21T03:48:55.435Z,3.77
2018-12-21T03:51:34.433Z,4.03
2018-12-21T03:54:16.087Z,2.63
2018-12-21T03:56:58.150Z,4.13
2018-12-21T03:59:37.129Z,3.20
2018-12-21T04:02:16.349Z,3.10
2018-12-21T04:04:53.484Z,3.13
2018-12-21T04:07:35.188Z,3.50
2018-12-21T04:10:13.832Z,3.23
2018-12-21T04:12:53.198Z,3.23
2018-12-21T04:15:36.172Z,2.97
2018-12-21T04:18:14.234Z,3.20
2018-12-21T04:20:50.976Z,2.70
2018-12-21T04:23:30.447Z,2.50
2018-12-21T04:26:07.670Z,3.47
2018-12-21T04:28:45.220Z,3.50
2018-12-21T04:31:22.199Z,2.77
2018-12-21T04:34:01.406Z,3.33
2018-12-21T04:36:38.557Z,2.90
2018-12-21T04:39:15.837Z,2.50
2018-12-21T04:41:52.564Z,3.07
2018-12-21T04:44:31.355Z,2.87
2018-12-21T04:47:08.802Z,2.83
2018-12-21T04:49:50.356Z,2.87
2018-12-21T04:52:29.292Z,3.00
2018-12-21T04:55:06.128Z,3.07
2018-12-21T04:57:43.112Z,3.43
2018-12-21T05:00:24.590Z,2.93
2018-12-21T05:03:01.389Z,2.67
2018-12-21T05:05:39.610Z,3.00
2018-12-21T05:08:16.760Z,3.23
2018-12-21T05:10:53.216Z,2.83
2018-12-21T05:13:35.826Z,2.97
2018-12-21T05:16:15.691Z,2.53
2018-12-21T05:18:57.952Z,2.40
2018-12-21T05:21:35.714Z,3.20
2018-12-21T05:24:16.930Z,3.33
2018-12-21T05:26:56.445Z,3.00
2018-12-21T05:29:36.083Z,2.63
2018-12-21T05:32:15.229Z,2.83
2018-12-21T05:34:52.118Z,2.60
2018-12-21T05:37:31.519Z,2.97
2018-12-21T05:40:11.224Z,2.60
2018-12-21T05:42:49.518Z,3.13
2018-12-21T05:45:27.462Z,3.57
2018-12-21T05:48:07.169Z,2.53
2018-12-21T05:50:46.509Z,2.90
2018-12-21T05:53:26.517Z,2.60
2018-12-21T05:56:03.358Z,2.77
2018-12-21T05:58:42.685Z,3.03
2018-12-21T06:01:19.929Z,2.77
2018-12-21T06:03:57.836Z,2.57
2018-12-21T06:06:35.348Z,2.70
2018-12-21T06:09:12.687Z,2.53
2018-12-21T06:11:54.481Z,2.47
2018-12-21T06:14:36.373Z,2.37
2018-12-21T06:17:14.392Z,2.93
2018-12-21T06:19:51.128Z,2.50
2018-12-21T06:22:30.827Z,2.40
2018-12-21T06:25:07.743Z,2.20
2018-12-21T06:27:47.418Z,2.50
2018-12-21T06:30:24.938Z,2.67
2018-12-21T06:33:03.030Z,2.30
2018-12-21T06:35:40.337Z,2.00
2018-12-21T06:38:17.751Z,2.60
2018-12-21T06:40:59.974Z,2.47
2018-12-21T06:43:36.918Z,2.40
2018-12-21T06:46:16.783Z,2.67
2018-12-21T06:48:53.714Z,2.20
2018-12-21T06:51:35.636Z,2.07
2018-12-21T06:54:17.301Z,2.73
2018-12-21T06:56:54.596Z,2.10
2018-12-21T06:59:31.497Z,2.40
2018-12-21T07:02:10.704Z,2.57
2018-12-21T07:04:47.996Z,3.10
2018-12-21T07:07:26.113Z,2.57
2018-12-21T07:10:02.859Z,4.60
2018-12-21T07:12:46.768Z,3.13
2018-12-21T07:15:26.082Z,3.40
2018-12-21T07:18:03.761Z,2.00
2018-12-21T07:20:43.210Z,3.30
2018-12-21T07:23:27.126Z,3.70
2018-12-21T07:26:02.404Z,4.30
2018-12-21T07:28:39.003Z,3.40
2018-12-21T07:31:18.017Z,5.03
2018-12-21T07:33:59.308Z,3.67
2018-12-21T07:36:38.197Z,4.57
2018-12-21T07:39:15.482Z,4.27
2018-12-21T07:41:51.603Z,5.30
2018-12-21T07:44:31.360Z,4.43
2018-12-21T07:47:12.921Z,4.30
2018-12-21T07:49:50.293Z,4.67
2018-12-21T07:52:29.975Z,3.97
2018-12-21T07:55:09.967Z,5.90
2018-12-21T07:57:47.086Z,5.37
2018-12-21T08:00:26.095Z,6.20
2018-12-21T08:03:02.580Z,6.53
2018-12-21T08:05:41.883Z,6.27
2018-12-21T08:08:19.641Z,6.40
2018-12-21T08:11:04.925Z,5.90
2018-12-21T08:13:43.681Z,6.13
2018-12-21T08:16:19.723Z,5.50
2018-12-21T08:19:01.999Z,4.63
2018-12-21T08:21:41.589Z,5.27
2018-12-21T08:24:18.665Z,5.70
2018-12-21T08:27:02.149Z,6.20
2018-12-21T08:29:41.919Z,5.83
2018-12-21T08:32:12.256Z,6.20
2018-12-21T08:34:49.750Z,5.80
2018-12-21T08:37:29.810Z,6.20
2018-12-21T08:40:08.672Z,6.77
2018-12-21T08:42:46.443Z,6.03
2018-12-21T08:45:23.672Z,6.93
2018-12-21T08:48:03.229Z,5.97
2018-12-21T08:50:39.977Z,6.47
2018-12-21T08:53:17.252Z,5.50
2018-12-21T08:55:54.423Z,6.20
2018-12-21T08:58:35.905Z,5.50
2018-12-21T09:01:13.475Z,5.07
2018-12-21T09:03:51.756Z,5.53
2018-12-21T09:06:28.440Z,6.80
2018-12-21T09:09:08.666Z,4.90
2018-12-21T09:11:46.292Z,5.47
2018-12-21T09:14:24.056Z,6.03
2018-12-21T09:17:01.169Z,5.17
2018-12-21T09:19:40.876Z,5.27
2018-12-21T09:22:17.502Z,5.10
2018-12-21T09:25:00.067Z,5.50
2018-12-21T09:27:41.346Z,5.83
2018-12-21T09:30:13.944Z,6.00
2018-12-21T09:32:51.288Z,5.00
2018-12-21T09:35:28.439Z,5.57
2018-12-21T09:38:06.540Z,4.63
2018-12-21T09:40:48.738Z,5.10
2018-12-21T09:43:25.849Z,5.10
2018-12-21T09:46:02.612Z,4.63
2018-12-21T09:48:41.607Z,4.80
2018-12-21T09:51:19.016Z,5.20
2018-12-21T09:53:56.792Z,5.23
2018-12-21T09:56:35.390Z,5.10
2018-12-21T09:59:12.409Z,5.20
2018-12-21T10:01:49.869Z,5.30
2018-12-21T10:04:26.888Z,6.20
2018-12-21T10:07:05.151Z,5.07
2018-12-21T10:09:42.652Z,5.23
2018-12-21T10:12:24.348Z,5.13
2018-12-21T10:15:02.056Z,5.40
2018-12-21T10:17:41.000Z,4.90
2018-12-21T10:20:19.983Z,5.20
2018-12-21T10:22:52.947Z,6.23
2018-12-21T10:25:35.073Z,5.20
2018-12-21T10:28:14.189Z,4.83
2018-12-21T10:30:51.648Z,4.67
2018-12-21T10:33:28.524Z,4.90
2018-12-21T10:36:05.426Z,5.23
2018-12-21T10:38:44.207Z,5.10
2018-12-21T10:41:22.134Z,5.90
2018-12-21T10:44:01.156Z,5.20
2018-12-21T10:46:37.749Z,5.33
2018-12-21T10:49:17.552Z,4.57
2018-12-21T10:51:49.797Z,4.30
2018-12-21T10:54:27.006Z,4.60
2018-12-21T10:57:05.382Z,3.67
2018-12-21T10:59:43.594Z,4.50
2018-12-21T11:02:22.739Z,4.73
2018-12-21T11:05:01.473Z,3.60
2018-12-21T11:07:40.529Z,3.63
2018-12-21T11:10:17.757Z,3.13
2018-12-21T11:12:55.800Z,3.27
2018-12-21T11:15:33.473Z,3.20
2018-12-21T11:18:12.184Z,3.30
2018-12-21T11:20:48.432Z,3.00
2018-12-21T11:23:27.225Z,3.13
2018-12-21T11:26:05.269Z,3.13
2018-12-21T11:28:49.396Z,2.40
2018-12-21T11:31:26.807Z,2.40
2018-12-21T11:34:05.137Z,2.30
2018-12-21T11:36:43.524Z,2.13
2018-12-21T11:39:22.708Z,1.93
2018-12-21T11:42:05.177Z,2.20
2018-12-21T11:44:44.478Z,1.97
2018-12-21T11:47:22.093Z,2.10
2018-12-21T11:49:59.795Z,2.00
2018-12-21T11:52:41.402Z,2.50
2018-12-21T11:55:13.501Z,2.30
2018-12-21T11:57:52.585Z,2.50
2018-12-21T12:00:33.179Z,2.03
2018-12-21T12:03:11.181Z,2.17
2018-12-21T12:05:54.229Z,2.00
2018-12-21T12:08:31.449Z,2.00
2018-12-21T12:11:09.852Z,1.90
2018-12-21T12:13:46.400Z,2.73
2018-12-21T12:16:25.672Z,2.17
2018-12-21T12:19:02.466Z,2.53
2018-12-21T12:21:41.373Z,2.10
2018-12-21T12:24:18.512Z,1.90
2018-12-21T12:26:57.700Z,1.67
2018-12-21T12:29:37.839Z,2.30
2018-12-21T12:32:20.356Z,2.20
2018-12-21T12:34:58.482Z,2.13
2018-12-21T12:37:35.458Z,2.17
2018-12-21T12:40:13.418Z,2.20
2018-12-21T12:42:50.846Z,2.07
2018-12-21T12:45:30.141Z,2.00
2018-12-21T12:48:12.429Z,1.83
2018-12-21T12:50:49.943Z,1.77
2018-12-21T12:53:26.640Z,2.03
2018-12-21T12:56:10.280Z,1.80
2018-12-21T12:58:50.307Z,2.03
2018-12-21T13:01:28.010Z,1.90
2018-12-21T13:04:10.283Z,1.70
2018-12-21T13:06:49.689Z,1.70
2018-12-21T13:09:26.992Z,1.30
2018-12-21T13:12:07.392Z,1.53
2018-12-21T13:14:43.017Z,1.53
2018-12-21T13:17:20.605Z,1.60
2018-12-21T13:20:02.159Z,1.50
2018-12-21T13:22:38.814Z,1.20
2018-12-21T13:25:18.210Z,1.23
2018-12-21T13:27:55.780Z,1.40
2018-12-21T13:30:36.718Z,1.33
2018-12-21T13:33:16.012Z,1.60
2018-12-21T13:35:55.053Z,1.33
2018-12-21T13:38:33.948Z,1.63
2018-12-21T13:41:14.255Z,1.43
2018-12-21T13:43:51.502Z,1.33
2018-12-21T13:46:32.880Z,1.60
2018-12-21T13:49:10.570Z,1.70
2018-12-21T13:51:48.302Z,1.57
2018-12-21T13:54:30.832Z,1.70
2018-12-21T13:57:13.899Z,1.63
2018-12-21T13:59:52.755Z,1.83
2018-12-21T14:02:30.634Z,1.33
2018-12-21T14:05:04.986Z,1.80
2018-12-21T14:07:37.610Z,1.77
2018-12-21T14:10:17.698Z,1.60
2018-12-21T14:12:56.038Z,1.47
2018-12-21T14:15:36.161Z,1.50
2018-12-21T14:18:13.036Z,1.50
2018-12-21T14:20:52.845Z,1.20
2018-12-21T14:23:35.173Z,1.67
2018-12-21T14:26:13.094Z,1.50
2018-12-21T14:28:52.200Z,1.47
2018-12-21T14:31:29.951Z,1.47
2018-12-21T14:34:07.715Z,1.73
2018-12-21T14:36:50.198Z,1.47
2018-12-21T14:39:30.813Z,1.23
2018-12-21T14:42:12.926Z,1.10
2018-12-21T14:44:49.789Z,1.30
2018-12-21T14:47:27.933Z,1.60
2018-12-21T14:50:10.001Z,1.10
2018-12-21T14:52:49.404Z,1.00
2018-12-21T14:55:37.413Z,1.13
2018-12-21T14:58:15.771Z,1.30
2018-12-21T15:00:54.582Z,1.00
2018-12-21T15:03:36.119Z,0.97
2018-12-21T15:06:19.249Z,1.33
2018-12-21T15:08:56.751Z,1.43
2018-12-21T15:11:36.653Z,1.50
2018-12-21T15:14:15.149Z,1.60
2018-12-21T15:16:52.716Z,1.73
2018-12-21T15:19:34.305Z,1.77
2018-12-21T15:22:13.977Z,3.20
2018-12-21T15:24:51.329Z,1.90
2018-12-21T15:27:33.145Z,2.30
2018-12-21T15:30:13.861Z,2.80
2018-12-21T15:32:50.736Z,1.93
2018-12-21T15:35:27.954Z,1.70
2018-12-21T15:38:05.798Z,1.70
2018-12-21T15:40:45.087Z,2.53
2018-12-21T15:43:22.965Z,2.03
2018-12-21T15:46:00.211Z,1.90
2018-12-21T15:48:37.655Z,2.10
2018-12-21T15:51:16.716Z,2.00
2018-12-21T15:54:03.022Z,2.17
2018-12-21T15:56:45.361Z,2.03
2018-12-21T15:59:27.954Z,3.13
2018-12-21T16:02:05.847Z,2.47
2018-12-21T16:04:43.554Z,4.80
2018-12-21T16:07:23.236Z,2.80
2018-12-21T16:09:59.971Z,2.50
2018-12-21T16:12:40.713Z,2.57
2018-12-21T16:15:21.681Z,3.37
2018-12-21T16:18:03.730Z,2.03
2018-12-21T16:20:43.877Z,2.90
2018-12-21T16:23:23.651Z,2.60
2018-12-21T16:26:03.672Z,2.97
2018-12-21T16:28:45.702Z,2.90
2018-12-21T16:31:24.839Z,3.30
2018-12-21T16:34:02.212Z,3.60
2018-12-21T16:36:42.030Z,4.03
2018-12-21T16:39:20.363Z,2.73
2018-12-21T16:41:59.934Z,3.00
2018-12-21T16:44:37.238Z,3.33
2018-12-21T16:47:23.963Z,3.00
2018-12-21T16:50:05.244Z,3.90
2018-12-21T16:52:45.903Z,3.80
2018-12-21T16:55:51.124Z,3.57
2018-12-21T16:58:27.857Z,3.30
2018-12-21T17:01:06.955Z,4.77
2018-12-21T17:03:56.576Z,3.83
2018-12-21T17:06:33.695Z,2.93
2018-12-21T17:09:16.065Z,3.60
2018-12-21T17:11:57.822Z,3.63
2018-12-21T17:14:40.141Z,4.43
2018-12-21T17:17:17.588Z,4.40
2018-12-21T17:19:54.004Z,3.70
2018-12-21T17:22:32.266Z,3.13
2018-12-21T17:25:05.238Z,5.03
2018-12-21T17:27:42.836Z,3.80
2018-12-21T17:30:21.012Z,3.67
2018-12-21T17:32:58.536Z,2.93
2018-12-21T17:35:37.679Z,3.47
2018-12-21T17:38:20.333Z,4.87
2018-12-21T17:40:56.801Z,3.50
2018-12-21T17:43:38.700Z,5.50
2018-12-21T17:46:17.489Z,3.63
2018-12-21T17:48:54.863Z,4.17
2018-12-21T17:51:31.573Z,3.13
2018-12-21T17:54:13.585Z,3.53
2018-12-21T17:56:53.013Z,3.37
2018-12-21T17:59:34.396Z,3.40
2018-12-21T18:02:11.941Z,3.03
2018-12-21T18:04:51.700Z,3.17
2018-12-21T18:07:28.265Z,2.43
2018-12-21T18:10:09.299Z,2.60
2018-12-21T18:12:52.016Z,3.27
2018-12-21T18:15:29.438Z,2.13
2018-12-21T18:18:11.304Z,2.17
2018-12-21T18:20:52.686Z,2.63
2018-12-21T18:23:32.690Z,2.10
2018-12-21T18:26:11.565Z,2.57
2018-12-21T18:28:50.466Z,2.57
2018-12-21T18:31:31.441Z,2.47
2018-12-21T18:34:13.030Z,2.50
2018-12-21T18:36:50.319Z,2.03
2018-12-21T18:39:29.329Z,2.43
2018-12-21T18:42:11.516Z,2.00
2018-12-21T18:44:48.451Z,1.83
2018-12-21T18:47:29.873Z,4.00
2018-12-21T18:50:06.595Z,2.27
2018-12-21T18:52:45.777Z,2.03
2018-12-21T18:55:23.183Z,2.30
2018-12-21T18:58:01.989Z,2.17
2018-12-21T19:00:39.653Z,1.47
2018-12-21T19:03:18.905Z,2.03
2018-12-21T19:06:07.979Z,1.60
2018-12-21T19:08:45.532Z,1.50
2018-12-21T19:11:27.323Z,2.00
2018-12-21T19:14:07.073Z,1.10
2018-12-21T19:16:44.483Z,1.47
2018-12-21T19:19:24.133Z,2.00
2018-12-21T19:22:01.738Z,1.90
2018-12-21T19:24:41.183Z,1.00
2018-12-21T19:27:17.893Z,1.40
2018-12-21T19:29:57.703Z,1.73
2018-12-21T19:32:36.505Z,1.37
2018-12-21T19:35:14.614Z,1.47
2018-12-21T19:37:51.349Z,1.27
2018-12-21T19:40:33.137Z,1.70
2018-12-21T19:43:13.033Z,1.40
2018-12-21T19:45:49.719Z,1.57
2018-12-21T19:48:26.826Z,1.23
2018-12-21T19:51:04.570Z,1.20
2018-12-21T19:53:46.449Z,1.50
2018-12-21T19:56:29.890Z,1.60
2018-12-21T19:59:07.625Z,1.00
2018-12-21T20:01:47.458Z,1.57
2018-12-21T20:04:24.491Z,1.70
2018-12-21T20:07:04.811Z,1.87
2018-12-21T20:09:41.685Z,1.40
2018-12-21T20:12:20.745Z,1.07
2018-12-21T20:14:58.989Z,1.47
2018-12-21T20:17:40.466Z,1.63
2018-12-21T20:20:19.483Z,1.37
2018-12-21T20:22:57.087Z,1.30
2018-12-21T20:25:38.797Z,2.40
2018-12-21T20:28:21.330Z,1.17
2018-12-21T20:31:00.484Z,1.53
2018-12-21T20:33:37.743Z,1.47
2018-12-21T20:36:18.190Z,1.20
2018-12-21T20:38:55.291Z,1.50
2018-12-21T20:41:37.597Z,1.30
2018-12-21T20:44:16.663Z,0.90
2018-12-21T20:46:53.037Z,1.37
2018-12-21T20:49:34.470Z,1.10
2018-12-21T20:52:14.599Z,1.17
2018-12-21T20:54:52.485Z,1.00
2018-12-21T20:57:31.244Z,1.00
2018-12-21T21:00:13.207Z,0.77
2018-12-21T21:03:10.133Z,1.43
2018-12-21T21:05:47.690Z,1.00
2018-12-21T21:08:26.896Z,0.87
2018-12-21T21:11:04.101Z,0.60
2018-12-21T21:13:43.683Z,0.50
2018-12-21T21:16:21.008Z,0.83
2018-12-21T21:18:59.899Z,0.83
2018-12-21T21:21:37.427Z,0.67
2018-12-21T21:24:15.220Z,1.00
2018-12-21T21:26:52.781Z,0.70
2018-12-21T21:29:32.060Z,0.40
2018-12-21T21:32:08.675Z,0.80
2018-12-21T21:34:50.758Z,0.70
2018-12-21T21:37:29.732Z,0.30
2018-12-21T21:40:08.425Z,0.80
2018-12-21T21:42:46.589Z,0.60
2018-12-21T21:45:23.360Z,0.70
2018-12-21T21:48:02.657Z,0.60
2018-12-21T21:50:39.648Z,0.50
2018-12-21T21:53:19.203Z,0.43
2018-12-21T21:55:56.190Z,0.63
2018-12-21T21:58:38.837Z,0.33
2018-12-21T22:01:18.077Z,1.13
2018-12-21T22:03:58.163Z,0.77
2018-12-21T22:06:42.307Z,0.73
2018-12-21T22:09:19.561Z,0.70
2018-12-21T22:12:04.526Z,1.07
2018-12-21T22:14:46.186Z,0.57
2018-12-21T22:17:23.461Z,0.60
2018-12-21T22:20:03.740Z,0.77
2018-12-21T22:22:40.513Z,0.93
2018-12-21T22:25:22.906Z,0.70
2018-12-21T22:28:05.464Z,0.70
2018-12-21T22:30:46.902Z,0.80
2018-12-21T22:33:28.596Z,0.83
2018-12-21T22:36:06.178Z,1.07
2018-12-21T22:38:46.132Z,0.70
2018-12-21T22:41:23.350Z,0.80
2018-12-21T22:44:03.510Z,0.80
2018-12-21T22:46:45.510Z,1.00
2018-12-21T22:49:22.560Z,1.20
2018-12-21T22:52:01.564Z,0.90
2018-12-21T22:54:38.886Z,0.63
2018-12-21T22:57:17.555Z,0.80
2018-12-21T22:59:54.470Z,1.00
2018-12-21T23:02:56.857Z,0.63
2018-12-21T23:05:39.133Z,0.60
2018-12-21T23:08:21.591Z,0.60
2018-12-21T23:11:00.434Z,1.00
2018-12-21T23:13:36.902Z,1.20
2018-12-21T23:16:15.898Z,1.00
2018-12-21T23:18:52.489Z,1.10
2018-12-21T23:21:30.380Z,0.70
2018-12-21T23:24:07.347Z,0.70
2018-12-21T23:26:46.256Z,0.77
2018-12-21T23:29:22.341Z,0.53
2018-12-21T23:32:03.574Z,0.90
2018-12-21T23:34:43.485Z,0.90
2018-12-21T23:37:20.702Z,0.83
2018-12-21T23:39:58.275Z,1.40
2018-12-21T23:42:40.537Z,0.73
2018-12-21T23:45:18.221Z,0.53
2018-12-21T23:47:55.846Z,1.17
2018-12-21T23:50:38.195Z,0.90
2018-12-21T23:53:17.993Z,0.80
2018-12-21T23:55:55.521Z,1.20
2018-12-21T23:58:37.224Z,0.90
